This is the latest recevied weather packets stored in our database for station/object K4WCH. If no packets are shown the sender has not sent any weather packets the latest 10 day(s).
| Time | Temp. | Humidity | Pressure | Rain* | Wind** | Luminosity | Snow |
|---|---|---|---|---|---|---|---|
| 1788113359 | 25° C | 91% | 1018.5 hPa | 4.83 mm | - | 67 W/m² | - |
| 1788113068 | 26.11° C | 89% | 1018.6 hPa | 1.27 mm | - | 72 W/m² | - |
| 1788112758 | 26.67° C | 85% | 1018.6 hPa | 0 mm | - | 91 W/m² | - |
| 1788112457 | 27.22° C | 81% | 1018.5 hPa | 0 mm | - | 105 W/m² | - |
| 1788112153 | 27.78° C | 78% | 1018.3 hPa | 0 mm | - | 84 W/m² | - |
| 1788111848 | 28.33° C | 76% | 1018.2 hPa | 0 mm | - | 162 W/m² | - |
| 1788111543 | 28.89° C | 74% | 1018.2 hPa | 0 mm | - | 137 W/m² | - |
| 1788111239 | 30° C | 74% | 1017.8 hPa | 0 mm | - | 205 W/m² | - |
| 1788110935 | 31.11° C | 68% | 1017.9 hPa | 0 mm | - | 189 W/m² | - |
| 1788110631 | 31.67° C | 72% | 1018 hPa | 0 mm | - | 314 W/m² | - |
| 1788110326 | 31.67° C | 71% | 1017.8 hPa | 0 mm | - | 320 W/m² | - |
| 1788110022 | 31.67° C | 70% | 1018.1 hPa | 0 mm | - | 313 W/m² | - |
| 1788109716 | 32.22° C | 67% | 1018.2 hPa | 0 mm | - | 459 W/m² | - |
| 1788109416 | 32.22° C | 67% | 1018 hPa | 0 mm | - | 351 W/m² | - |
| 1788109114 | 32.22° C | 64% | 1018.3 hPa | 0 mm | - | 456 W/m² | - |
| 1788108811 | 32.22° C | 65% | 1018.4 hPa | 0 mm | - | 739 W/m² | - |
| 1788108507 | 32.22° C | 65% | 1018.4 hPa | 0 mm | - | 818 W/m² | - |
| 1788108202 | 32.22° C | 66% | 1018.3 hPa | 0 mm | - | 1025 W/m² | - |
| 1788107900 | 31.67° C | 67% | 1018.7 hPa | 0 mm | - | 994 W/m² | - |
| 1788107594 | 31.67° C | 65% | 1018.6 hPa | 0 mm | - | 1075 W/m² | - |
| 1788107289 | 31.11° C | 72% | 1018.7 hPa | 0 mm | - | 953 W/m² | - |
| 1788106986 | 31.11° C | 72% | 1018.6 hPa | 0 mm | - | 953 W/m² | - |
| 1788106681 | 31.11° C | 69% | 1018.4 hPa | 0 mm | - | 952 W/m² | - |
| 1788106380 | 32.22° C | 67% | 1018.5 hPa | 0 mm | - | 198 W/m² | - |
| 1788106075 | 31.67° C | 69% | 1018.6 hPa | 0 mm | - | 762 W/m² | - |
* Rain latest hour (hover to see other rain measurements)
** Current wind speed in m/s (hover to see current wind gust speed)